createdAt,value
2024-05-09T00:01:07.905Z,0.00
2024-05-09T00:06:08.038Z,0.00
2024-05-09T00:11:07.834Z,0.00
2024-05-09T00:16:07.755Z,0.00
2024-05-09T00:21:07.800Z,0.00
2024-05-09T00:26:07.617Z,0.00
2024-05-09T00:31:07.551Z,0.00
2024-05-09T00:36:07.476Z,0.00
2024-05-09T00:41:07.542Z,0.00
2024-05-09T00:46:07.372Z,0.00
2024-05-09T00:51:07.405Z,0.00
2024-05-09T00:56:07.264Z,0.00
2024-05-09T01:01:07.296Z,0.00
2024-05-09T01:06:07.194Z,0.00
2024-05-09T01:11:07.180Z,0.00
2024-05-09T01:16:07.125Z,0.00
2024-05-09T01:21:07.045Z,0.00
2024-05-09T01:26:06.972Z,0.00
2024-05-09T01:31:06.912Z,0.00
2024-05-09T01:36:06.822Z,0.00
2024-05-09T01:41:06.876Z,0.00
2024-05-09T01:46:06.726Z,0.00
2024-05-09T01:51:06.826Z,0.00
2024-05-09T01:56:06.675Z,0.00
2024-05-09T02:01:06.711Z,0.00
2024-05-09T02:06:06.797Z,0.00
2024-05-09T02:11:06.532Z,0.00
2024-05-09T02:16:06.404Z,0.00
2024-05-09T02:21:06.476Z,0.00
2024-05-09T02:26:06.320Z,0.00
2024-05-09T02:31:06.255Z,0.00
2024-05-09T02:36:06.168Z,0.00
2024-05-09T02:41:06.205Z,0.00
2024-05-09T02:46:06.080Z,0.00
2024-05-09T02:51:06.217Z,0.00
2024-05-09T02:56:06.024Z,0.00
2024-05-09T03:01:05.996Z,0.00
2024-05-09T03:06:05.870Z,0.00
2024-05-09T03:11:05.851Z,0.00
2024-05-09T03:16:05.705Z,0.00
2024-05-09T03:21:05.798Z,0.00
2024-05-09T03:26:05.612Z,0.00
2024-05-09T03:31:05.547Z,0.00
2024-05-09T03:36:08.235Z,0.00
2024-05-09T03:41:05.506Z,5.62
2024-05-09T03:46:05.398Z,11.25
2024-05-09T03:51:05.501Z,16.88
2024-05-09T03:56:05.312Z,22.50
2024-05-09T04:01:05.305Z,33.75
2024-05-09T04:06:05.216Z,45.00
2024-05-09T04:11:05.269Z,56.25
2024-05-09T04:16:05.057Z,73.12
2024-05-09T04:21:05.217Z,84.38
2024-05-09T04:26:05.069Z,90.00
2024-05-09T04:31:04.905Z,112.50
2024-05-09T04:36:04.826Z,129.38
2024-05-09T04:41:04.836Z,140.62
2024-05-09T04:46:04.699Z,163.12
2024-05-09T04:51:04.739Z,185.62
2024-05-09T04:56:04.653Z,202.50
2024-05-09T05:01:04.611Z,225.00
2024-05-09T05:06:04.592Z,247.50
2024-05-09T05:11:04.625Z,264.38
2024-05-09T05:16:04.375Z,275.62
2024-05-09T05:21:04.398Z,298.12
2024-05-09T05:26:04.341Z,331.88
2024-05-09T05:31:06.263Z,365.62
2024-05-09T05:36:04.189Z,388.12
2024-05-09T05:41:05.207Z,421.88
2024-05-09T05:46:04.074Z,438.75
2024-05-09T05:51:04.800Z,472.50
2024-05-09T05:56:04.021Z,506.25
2024-05-09T06:01:04.074Z,573.75
2024-05-09T06:06:04.243Z,618.75
2024-05-09T06:11:04.091Z,663.75
2024-05-09T06:16:04.798Z,686.25
2024-05-09T06:21:03.803Z,725.62
2024-05-09T06:26:03.677Z,776.25
2024-05-09T06:31:03.624Z,905.62
2024-05-09T06:36:04.274Z,967.50
2024-05-09T06:41:03.617Z,1001.25
2024-05-09T06:46:03.432Z,1051.88
2024-05-09T06:51:03.398Z,1091.25
2024-05-09T06:56:03.355Z,1186.88
2024-05-09T07:01:03.430Z,1226.25
2024-05-09T07:06:03.403Z,1282.50
2024-05-09T07:11:03.330Z,1355.62
2024-05-09T07:16:03.122Z,1451.25
2024-05-09T07:21:03.124Z,1546.88
2024-05-09T07:26:03.032Z,1558.12
2024-05-09T07:31:03.038Z,1636.88
2024-05-09T07:36:02.882Z,1648.12
2024-05-09T07:41:02.910Z,1732.50
2024-05-09T07:47:14.322Z,1895.62
2024-05-09T07:56:02.890Z,1985.62
2024-05-09T08:01:02.819Z,1980.00
2024-05-09T08:06:02.563Z,2013.75
2024-05-09T08:11:02.679Z,2041.88
2024-05-09T08:16:02.571Z,2019.38
2024-05-09T08:21:02.423Z,2182.50
2024-05-09T08:26:02.341Z,2351.25
2024-05-09T08:31:05.164Z,2356.88
2024-05-09T08:36:02.242Z,2503.12
2024-05-09T08:41:02.230Z,2469.38
2024-05-09T08:46:02.208Z,2362.50
2024-05-09T08:51:02.204Z,2480.62
2024-05-09T08:56:02.043Z,2778.75
2024-05-09T09:01:02.105Z,2615.62
2024-05-09T09:06:01.942Z,2407.50
2024-05-09T09:11:01.914Z,2446.88
2024-05-09T09:16:01.873Z,2868.75
2024-05-09T09:21:01.832Z,2913.75
2024-05-09T09:26:01.850Z,3043.12
2024-05-09T09:31:01.873Z,3037.50
2024-05-09T09:36:01.649Z,2981.25
2024-05-09T09:41:01.896Z,3144.38
2024-05-09T09:46:01.611Z,2728.12
2024-05-09T09:51:01.608Z,2756.25
2024-05-09T09:56:01.465Z,3093.75
2024-05-09T10:01:01.559Z,2947.50
2024-05-09T10:06:01.426Z,3037.50
2024-05-09T10:11:01.448Z,2953.12
2024-05-09T10:16:01.295Z,3020.62
2024-05-09T10:21:01.280Z,1130.62
2024-05-09T10:26:01.229Z,3403.12
2024-05-09T10:31:01.204Z,3555.00
2024-05-09T10:36:01.099Z,3526.88
2024-05-09T10:41:01.097Z,3442.50
2024-05-09T10:46:01.150Z,3262.50
2024-05-09T10:51:01.101Z,3234.38
2024-05-09T10:56:00.899Z,1035.00
2024-05-09T11:01:03.399Z,3234.38
2024-05-09T11:06:00.893Z,3318.75
2024-05-09T11:11:00.784Z,888.75
2024-05-09T11:16:00.825Z,832.50
2024-05-09T11:21:00.821Z,843.75
2024-05-09T11:26:00.694Z,995.62
2024-05-09T11:31:00.787Z,1096.88
2024-05-09T11:36:00.513Z,1293.75
2024-05-09T11:41:00.462Z,1490.62
2024-05-09T11:46:00.491Z,2829.38
2024-05-09T11:51:00.391Z,3802.50
2024-05-09T11:56:00.430Z,4005.00
2024-05-09T12:01:00.336Z,3650.62
2024-05-09T12:06:00.570Z,3678.75
2024-05-09T12:11:00.480Z,3470.62
2024-05-09T12:16:00.182Z,1805.62
2024-05-09T12:21:00.099Z,3532.50
2024-05-09T12:26:00.047Z,973.12
2024-05-09T12:31:00.082Z,866.25
2024-05-09T12:35:59.985Z,849.38
2024-05-09T12:41:00.007Z,883.12
2024-05-09T12:45:59.938Z,1018.12
2024-05-09T12:50:59.809Z,2559.38
2024-05-09T12:56:02.330Z,1552.50
2024-05-09T13:00:59.815Z,1231.88
2024-05-09T13:05:59.769Z,1400.62
2024-05-09T13:10:59.645Z,2075.62
2024-05-09T13:15:59.683Z,1085.62
2024-05-09T13:20:59.479Z,928.12
2024-05-09T13:25:59.472Z,1350.00
2024-05-09T13:30:59.457Z,2998.12
2024-05-09T13:35:59.342Z,2958.75
2024-05-09T13:40:59.439Z,3150.00
2024-05-09T13:45:59.425Z,3228.75
2024-05-09T13:50:59.404Z,3138.75
2024-05-09T13:55:59.143Z,2638.12
2024-05-09T14:00:59.225Z,2778.75
2024-05-09T14:05:59.226Z,2964.38
2024-05-09T14:10:59.154Z,3009.38
2024-05-09T14:15:59.057Z,3093.75
2024-05-09T14:20:58.924Z,2745.00
2024-05-09T14:25:58.842Z,2469.38
2024-05-09T14:31:01.817Z,1389.38
2024-05-09T14:36:00.340Z,2435.62
2024-05-09T14:40:59.022Z,1445.62
2024-05-09T14:45:58.718Z,1361.25
2024-05-09T14:50:58.649Z,1884.38
2024-05-09T14:55:58.628Z,1833.75
2024-05-09T15:00:58.765Z,1816.88
2024-05-09T15:05:58.495Z,1951.88
2024-05-09T15:10:58.648Z,1845.00
2024-05-09T15:15:58.391Z,1681.88
2024-05-09T15:20:58.540Z,1479.38
2024-05-09T15:25:58.333Z,1344.38
2024-05-09T15:30:58.311Z,1175.62
2024-05-09T15:35:58.182Z,928.12
2024-05-09T15:40:58.155Z,883.12
2024-05-09T15:45:58.093Z,815.62
2024-05-09T15:50:58.178Z,742.50
2024-05-09T15:55:57.982Z,894.38
2024-05-09T16:00:58.065Z,680.62
2024-05-09T16:05:57.903Z,590.62
2024-05-09T16:10:58.121Z,545.62
2024-05-09T16:15:57.811Z,500.62
2024-05-09T16:20:57.821Z,466.88
2024-05-09T16:25:57.713Z,450.00
2024-05-09T16:30:57.662Z,433.12
2024-05-09T16:35:57.558Z,433.12
2024-05-09T16:40:57.660Z,427.50
2024-05-09T16:45:58.418Z,438.75
2024-05-09T16:50:57.393Z,438.75
2024-05-09T16:55:57.369Z,450.00
2024-05-09T17:00:57.524Z,455.62
2024-05-09T17:05:57.295Z,461.25
2024-05-09T17:10:57.284Z,455.62
2024-05-09T17:15:57.526Z,427.50
2024-05-09T17:20:57.073Z,405.00
2024-05-09T17:25:57.343Z,371.25
2024-05-09T17:30:57.111Z,354.38
2024-05-09T17:35:56.892Z,337.50
2024-05-09T17:40:56.913Z,326.25
2024-05-09T17:45:56.846Z,303.75
2024-05-09T17:50:56.772Z,281.25
2024-05-09T17:55:56.709Z,270.00
2024-05-09T18:00:56.689Z,247.50
2024-05-09T18:05:56.734Z,241.88
2024-05-09T18:10:56.637Z,236.25
2024-05-09T18:15:56.815Z,219.38
2024-05-09T18:20:56.439Z,202.50
2024-05-09T18:25:56.373Z,191.25
2024-05-09T18:30:56.357Z,174.38
2024-05-09T18:35:56.296Z,151.88
2024-05-09T18:40:56.356Z,123.75
2024-05-09T18:45:56.166Z,90.00
2024-05-09T18:50:56.293Z,67.50
2024-05-09T18:55:56.153Z,50.62
2024-05-09T19:00:58.395Z,33.75
2024-05-09T19:05:56.183Z,22.50
2024-05-09T19:10:56.160Z,11.25
2024-05-09T19:15:55.987Z,5.62
2024-05-09T19:20:55.859Z,0.00
2024-05-09T19:25:55.692Z,0.00
2024-05-09T19:30:55.692Z,0.00
2024-05-09T19:35:55.608Z,0.00
2024-05-09T19:40:55.749Z,0.00
2024-05-09T19:45:55.553Z,0.00
2024-05-09T19:50:55.536Z,0.00
2024-05-09T19:55:56.561Z,0.00
2024-05-09T20:00:55.540Z,0.00
2024-05-09T20:05:55.359Z,0.00
2024-05-09T20:10:55.387Z,0.00
2024-05-09T20:15:55.247Z,0.00
2024-05-09T20:20:55.299Z,0.00
2024-05-09T20:25:55.105Z,0.00
2024-05-09T20:30:55.126Z,0.00
2024-05-09T20:35:55.010Z,0.00
2024-05-09T20:40:54.978Z,0.00
2024-05-09T20:45:55.022Z,0.00
2024-05-09T20:50:54.938Z,0.00
2024-05-09T20:55:54.798Z,0.00
2024-05-09T21:00:54.842Z,0.00
2024-05-09T21:05:54.701Z,0.00
2024-05-09T21:10:54.811Z,0.00
2024-05-09T21:15:54.722Z,0.00
2024-05-09T21:20:54.530Z,0.00
2024-05-09T21:25:54.466Z,0.00
2024-05-09T21:30:54.500Z,0.00
2024-05-09T21:35:54.358Z,0.00
2024-05-09T21:40:54.410Z,0.00
2024-05-09T21:45:54.363Z,0.00
2024-05-09T21:50:54.267Z,0.00
2024-05-09T21:55:54.142Z,0.00
2024-05-09T22:00:54.183Z,0.00
2024-05-09T22:05:54.963Z,0.00
2024-05-09T22:10:54.143Z,0.00
2024-05-09T22:15:55.077Z,0.00
2024-05-09T22:20:54.010Z,0.00
2024-05-09T22:25:53.839Z,0.00
2024-05-09T22:30:53.845Z,0.00
2024-05-09T22:35:53.769Z,0.00
2024-05-09T22:40:53.738Z,0.00
2024-05-09T22:45:53.865Z,0.00
2024-05-09T22:50:53.870Z,0.00
2024-05-09T22:55:53.520Z,0.00
2024-05-09T23:00:53.732Z,0.00
2024-05-09T23:05:53.510Z,0.00
2024-05-09T23:10:53.702Z,0.00
2024-05-09T23:15:53.317Z,0.00
2024-05-09T23:20:53.253Z,0.00
2024-05-09T23:25:53.227Z,0.00
2024-05-09T23:30:53.294Z,0.00
2024-05-09T23:35:53.063Z,0.00
2024-05-09T23:40:53.129Z,0.00
2024-05-09T23:45:53.058Z,0.00
2024-05-09T23:50:52.939Z,0.00
2024-05-09T23:55:52.877Z,0.00
